PWSweather.com
Personal Weather Stations
Station Observations
SK506605TK
Roznove Mitice, Trencianske MiticeSK 91322

Roznove MiticeTrencianske MiticeSK 91322

Lat: 48.8067, Lon: 18.1133

Elevation: 984

Station Type: Oregon Scientific WMRS200

High Low Average
Temperature 58.1°F14.5°C 46.9°F8.3°C 52.0°F11.1°C
Dew Point 41.0°F5.0°C 36.1°F2.3°C 38.6°F3.7°C
Winds 6.6 mph 10.6 kmh Calm Calm 3.0 mph SW4.8 kmh SW
Wind Gusts 12.8 mph20.6 kmh 1.6 mph2.6 kmh 6.0 mph9.7 kmh
Humidity 78% 47% 61%
Pressure 28.56 in967.2 mb 28.41 in962.1 mb -
Precipitation 0.00 in0.0 mm - -
Hour Temp Dew Point Humidity Winds Wind Gusts Pressure Precip Precip Rate Daily Precip Total
01:24 AM 50.3°F10.2°C 39.2°F4.0°C 66% 3.7 mph WNW6.0 kmh WNW 6.5 mph10.5 kmh 28.56 in967.2 mb 0.00 in0.0 mm 0.00 in/hr0.0 mm/hr 0.00 in0.0 mm
01:29 AM 49.6°F9.8°C 39.9°F4.4°C 69% 4.1 mph WNW6.6 kmh WNW 6.7 mph10.8 kmh 28.56 in967.2 mb 0.00 in0.0 mm 0.00 in/hr0.0 mm/hr 0.00 in0.0 mm
01:34 AM 49.6°F9.8°C 39.9°F4.4°C 69% 4.3 mph WNW6.9 kmh WNW 6.7 mph10.8 kmh 28.56 in967.2 mb 0.00 in0.0 mm 0.00 in/hr0.0 mm/hr 0.00 in0.0 mm
01:39 AM 49.5°F9.7°C 39.8°F4.3°C 69% 3.6 mph NW5.8 kmh NW 4.7 mph7.6 kmh 28.56 in967.2 mb 0.00 in0.0 mm 0.00 in/hr0.0 mm/hr 0.00 in0.0 mm
01:44 AM 49.5°F9.7°C 39.7°F4.3°C 69% 4.5 mph WNW7.2 kmh WNW 5.6 mph9.0 kmh 28.56 in967.2 mb 0.00 in0.0 mm 0.00 in/hr0.0 mm/hr 0.00 in0.0 mm
01:49 AM 49.5°F9.7°C 39.7°F4.3°C 69% 4.4 mph WNW7.1 kmh WNW 6.5 mph10.5 kmh 28.56 in967.2 mb 0.00 in0.0 mm 0.00 in/hr0.0 mm/hr 0.00 in0.0 mm
01:54 AM 49.5°F9.7°C 39.7°F4.3°C 69% 4.5 mph WNW7.2 kmh WNW 6.5 mph10.5 kmh 28.56 in967.2 mb 0.00 in0.0 mm 0.00 in/hr0.0 mm/hr 0.00 in0.0 mm
01:59 AM 49.5°F9.7°C 39.7°F4.3°C 69% 4.4 mph NW7.1 kmh NW 5.4 mph8.7 kmh 28.56 in967.2 mb 0.00 in0.0 mm 0.00 in/hr0.0 mm/hr 0.00 in0.0 mm
02:04 AM 49.4°F9.7°C 39.7°F4.3°C 70% 3.9 mph NW6.3 kmh NW 6.3 mph10.1 kmh 28.56 in967.2 mb 0.00 in0.0 mm 0.00 in/hr0.0 mm/hr 0.00 in0.0 mm
02:09 AM 49.2°F9.6°C 39.9°F4.4°C 70% 4.0 mph NW6.4 kmh NW 6.3 mph10.1 kmh 28.56 in967.2 mb 0.00 in0.0 mm 0.00 in/hr0.0 mm/hr 0.00 in0.0 mm
02:14 AM 49.1°F9.5°C 39.8°F4.3°C 70% 3.9 mph NW6.3 kmh NW 7.4 mph11.9 kmh 28.56 in967.2 mb 0.00 in0.0 mm 0.00 in/hr0.0 mm/hr 0.00 in0.0 mm
02:19 AM 49.1°F9.5°C 39.8°F4.3°C 70% 4.2 mph WNW6.8 kmh WNW 7.4 mph11.9 kmh 28.56 in967.2 mb 0.00 in0.0 mm 0.00 in/hr0.0 mm/hr 0.00 in0.0 mm
02:24 AM 49.0°F9.4°C 39.9°F4.4°C 71% 4.7 mph WNW7.6 kmh WNW 7.8 mph12.6 kmh 28.56 in967.2 mb 0.00 in0.0 mm 0.00 in/hr0.0 mm/hr 0.00 in0.0 mm
02:29 AM 48.9°F9.4°C 39.9°F4.4°C 71% 4.1 mph WNW6.6 kmh WNW 7.8 mph12.6 kmh 28.56 in967.2 mb 0.00 in0.0 mm 0.00 in/hr0.0 mm/hr 0.00 in0.0 mm
02:34 AM 48.7°F9.3°C 40.1°F4.5°C 72% 4.0 mph NW6.4 kmh NW 7.6 mph12.2 kmh 28.56 in967.2 mb 0.00 in0.0 mm 0.00 in/hr0.0 mm/hr 0.00 in0.0 mm
02:39 AM 48.6°F9.2°C 40.2°F4.6°C 73% 5.7 mph W9.2 kmh W 8.7 mph14.0 kmh 28.56 in967.2 mb 0.00 in0.0 mm 0.00 in/hr0.0 mm/hr 0.00 in0.0 mm
02:44 AM 48.5°F9.2°C 40.3°F4.6°C 73% 3.2 mph WNW5.1 kmh WNW 8.7 mph14.0 kmh 28.56 in967.2 mb 0.00 in0.0 mm 0.00 in/hr0.0 mm/hr 0.00 in0.0 mm
02:49 AM 48.4°F9.1°C 40.3°F4.6°C 74% 5.0 mph WNW8.0 kmh WNW 7.6 mph12.2 kmh 28.56 in967.2 mb 0.00 in0.0 mm 0.00 in/hr0.0 mm/hr 0.00 in0.0 mm
02:54 AM 48.4°F9.1°C 40.5°F4.7°C 74% 3.9 mph WNW6.3 kmh WNW 7.6 mph12.2 kmh 28.56 in967.2 mb 0.00 in0.0 mm 0.00 in/hr0.0 mm/hr 0.00 in0.0 mm
02:59 AM 48.2°F9.0°C 40.3°F4.6°C 74% 5.6 mph WNW9.0 kmh WNW 6.9 mph11.1 kmh 28.56 in967.2 mb 0.00 in0.0 mm 0.00 in/hr0.0 mm/hr 0.00 in0.0 mm
03:04 AM 48.2°F9.0°C 40.4°F4.7°C 75% 3.4 mph W5.5 kmh W 6.7 mph10.8 kmh 28.56 in967.2 mb 0.00 in0.0 mm 0.00 in/hr0.0 mm/hr 0.00 in0.0 mm
03:09 AM 48.2°F9.0°C 40.6°F4.8°C 75% 3.4 mph NW5.5 kmh NW 5.8 mph9.3 kmh 28.56 in967.2 mb 0.00 in0.0 mm 0.00 in/hr0.0 mm/hr 0.00 in0.0 mm
03:14 AM 48.0°F8.9°C 40.5°F4.7°C 75% 3.4 mph WNW5.5 kmh WNW 6.5 mph10.5 kmh 28.56 in967.2 mb 0.00 in0.0 mm 0.00 in/hr0.0 mm/hr 0.00 in0.0 mm
03:19 AM 48.0°F8.9°C 40.5°F4.7°C 75% 3.4 mph NW5.5 kmh NW 6.5 mph10.5 kmh 28.56 in967.2 mb 0.00 in0.0 mm 0.00 in/hr0.0 mm/hr 0.00 in0.0 mm
03:24 AM 48.0°F8.9°C 40.8°F4.9°C 76% 4.2 mph W6.8 kmh W 7.2 mph11.6 kmh 28.56 in967.2 mb 0.00 in0.0 mm 0.00 in/hr0.0 mm/hr 0.00 in0.0 mm
03:29 AM 48.0°F8.9°C 40.8°F4.9°C 76% 4.1 mph NW6.6 kmh NW 7.2 mph11.6 kmh 28.56 in967.2 mb 0.00 in0.0 mm 0.00 in/hr0.0 mm/hr 0.00 in0.0 mm
03:34 AM 48.0°F8.9°C 40.8°F4.9°C 76% 4.3 mph WNW6.9 kmh WNW 7.2 mph11.6 kmh 28.56 in967.2 mb 0.00 in0.0 mm 0.00 in/hr0.0 mm/hr 0.00 in0.0 mm
03:39 AM 48.1°F8.9°C 40.8°F4.9°C 76% 3.7 mph NW6.0 kmh NW 7.2 mph11.6 kmh 28.56 in967.2 mb 0.00 in0.0 mm 0.00 in/hr0.0 mm/hr 0.00 in0.0 mm
03:44 AM 48.0°F8.9°C 40.7°F4.8°C 76% 4.1 mph WNW6.6 kmh WNW 6.5 mph10.5 kmh 28.53 in966.1 mb 0.00 in0.0 mm 0.00 in/hr0.0 mm/hr 0.00 in0.0 mm
03:49 AM 47.8°F8.8°C 40.7°F4.8°C 76% 4.2 mph WNW6.8 kmh WNW 6.5 mph10.5 kmh 28.53 in966.1 mb 0.00 in0.0 mm 0.00 in/hr0.0 mm/hr 0.00 in0.0 mm
03:54 AM 47.8°F8.8°C 40.7°F4.8°C 76% 4.3 mph NW6.9 kmh NW 6.7 mph10.8 kmh 28.53 in966.1 mb 0.00 in0.0 mm 0.00 in/hr0.0 mm/hr 0.00 in0.0 mm
03:59 AM 47.7°F8.7°C 40.5°F4.7°C 76% 3.9 mph WNW6.3 kmh WNW 7.2 mph11.6 kmh 28.53 in966.1 mb 0.00 in0.0 mm 0.00 in/hr0.0 mm/hr 0.00 in0.0 mm
04:04 AM 47.6°F8.7°C 40.7°F4.8°C 77% 5.0 mph WNW8.0 kmh WNW 8.5 mph13.7 kmh 28.53 in966.1 mb 0.00 in0.0 mm 0.00 in/hr0.0 mm/hr 0.00 in0.0 mm
04:09 AM 47.5°F8.6°C 40.7°F4.8°C 77% 3.6 mph WNW5.8 kmh WNW 8.5 mph13.7 kmh 28.53 in966.1 mb 0.00 in0.0 mm 0.00 in/hr0.0 mm/hr 0.00 in0.0 mm
04:16 AM 47.3°F8.5°C 40.5°F4.7°C 77% 4.3 mph WNW6.9 kmh WNW 7.6 mph12.2 kmh 28.53 in966.1 mb 0.00 in0.0 mm 0.00 in/hr0.0 mm/hr 0.00 in0.0 mm
04:21 AM 47.3°F8.5°C 40.5°F4.7°C 77% 4.3 mph WNW6.9 kmh WNW 7.6 mph12.2 kmh 28.53 in966.1 mb 0.00 in0.0 mm 0.00 in/hr0.0 mm/hr 0.00 in0.0 mm
04:26 AM 47.2°F8.4°C 40.4°F4.7°C 77% 3.3 mph WNW5.3 kmh WNW 7.4 mph11.9 kmh 28.53 in966.1 mb 0.00 in0.0 mm 0.00 in/hr0.0 mm/hr 0.00 in0.0 mm
04:31 AM 47.1°F8.4°C 40.3°F4.6°C 77% 3.8 mph NW6.1 kmh NW 6.5 mph10.5 kmh 28.53 in966.1 mb 0.00 in0.0 mm 0.00 in/hr0.0 mm/hr 0.00 in0.0 mm
04:36 AM 47.1°F8.4°C 40.5°F4.7°C 78% 4.0 mph W6.4 kmh W 6.5 mph10.5 kmh 28.53 in966.1 mb 0.00 in0.0 mm 0.00 in/hr0.0 mm/hr 0.00 in0.0 mm
04:41 AM 47.1°F8.4°C 40.5°F4.7°C 78% 3.0 mph W4.8 kmh W 7.4 mph11.9 kmh 28.53 in966.1 mb 0.00 in0.0 mm 0.00 in/hr0.0 mm/hr 0.00 in0.0 mm
04:46 AM 47.0°F8.3°C 40.4°F4.7°C 77% 3.0 mph WNW4.8 kmh WNW 7.4 mph11.9 kmh 28.53 in966.1 mb 0.00 in0.0 mm 0.00 in/hr0.0 mm/hr 0.00 in0.0 mm
04:51 AM 47.1°F8.4°C 40.3°F4.6°C 77% 2.6 mph WNW4.2 kmh WNW 5.6 mph9.0 kmh 28.53 in966.1 mb 0.00 in0.0 mm 0.00 in/hr0.0 mm/hr 0.00 in0.0 mm
04:58 AM 47.1°F8.4°C 40.3°F4.6°C 77% 3.2 mph WNW5.1 kmh WNW 6.3 mph10.1 kmh 28.53 in966.1 mb 0.00 in0.0 mm 0.00 in/hr0.0 mm/hr 0.00 in0.0 mm
05:09 AM 47.1°F8.4°C 40.3°F4.6°C 77% 4.0 mph NW6.4 kmh NW 6.0 mph9.7 kmh 28.53 in966.1 mb 0.00 in0.0 mm 0.00 in/hr0.0 mm/hr 0.00 in0.0 mm
05:14 AM 47.1°F8.4°C 40.5°F4.7°C 78% 3.3 mph W5.3 kmh W 6.7 mph10.8 kmh 28.53 in966.1 mb 0.00 in0.0 mm 0.00 in/hr0.0 mm/hr 0.00 in0.0 mm
05:19 AM 47.1°F8.4°C 40.5°F4.7°C 77% 4.7 mph WNW7.6 kmh WNW 7.8 mph12.6 kmh 28.53 in966.1 mb 0.00 in0.0 mm 0.00 in/hr0.0 mm/hr 0.00 in0.0 mm
05:24 AM 47.1°F8.4°C 40.3°F4.6°C 77% 3.7 mph NW6.0 kmh NW 7.8 mph12.6 kmh 28.53 in966.1 mb 0.00 in0.0 mm 0.00 in/hr0.0 mm/hr 0.00 in0.0 mm
05:29 AM 47.2°F8.4°C 40.4°F4.7°C 77% 4.0 mph NW6.4 kmh NW 7.2 mph11.6 kmh 28.53 in966.1 mb 0.00 in0.0 mm 0.00 in/hr0.0 mm/hr 0.00 in0.0 mm
05:34 AM 47.3°F8.5°C 40.5°F4.7°C 77% 4.8 mph WNW7.7 kmh WNW 7.8 mph12.6 kmh 28.53 in966.1 mb 0.00 in0.0 mm 0.00 in/hr0.0 mm/hr 0.00 in0.0 mm
05:39 AM 47.3°F8.5°C 40.4°F4.7°C 77% 3.0 mph WNW4.8 kmh WNW 7.8 mph12.6 kmh 28.53 in966.1 mb 0.00 in0.0 mm 0.00 in/hr0.0 mm/hr 0.00 in0.0 mm
05:44 AM 47.3°F8.5°C 40.1°F4.5°C 76% 3.1 mph WNW5.0 kmh WNW 6.0 mph9.7 kmh 28.53 in966.1 mb 0.00 in0.0 mm 0.00 in/hr0.0 mm/hr 0.00 in0.0 mm
05:49 AM 47.3°F8.5°C 40.2°F4.6°C 76% 4.2 mph NW6.8 kmh NW 5.8 mph9.3 kmh 28.53 in966.1 mb 0.00 in0.0 mm 0.00 in/hr0.0 mm/hr 0.00 in0.0 mm
05:54 AM 47.5°F8.6°C 40.3°F4.6°C 76% 4.7 mph WNW7.6 kmh WNW 7.2 mph11.6 kmh 28.53 in966.1 mb 0.00 in0.0 mm 0.00 in/hr0.0 mm/hr 0.00 in0.0 mm
05:59 AM 47.5°F8.6°C 40.3°F4.6°C 76% 4.1 mph WNW6.6 kmh WNW 7.2 mph11.6 kmh 28.53 in966.1 mb 0.00 in0.0 mm 0.00 in/hr0.0 mm/hr 0.00 in0.0 mm
06:04 AM 47.6°F8.7°C 40.4°F4.7°C 76% 2.5 mph WNW4.0 kmh WNW 6.0 mph9.7 kmh 28.53 in966.1 mb 0.00 in0.0 mm 0.00 in/hr0.0 mm/hr 0.00 in0.0 mm
06:09 AM 47.7°F8.7°C 40.5°F4.7°C 76% 4.3 mph WNW6.9 kmh WNW 7.2 mph11.6 kmh 28.53 in966.1 mb 0.00 in0.0 mm 0.00 in/hr0.0 mm/hr 0.00 in0.0 mm
06:14 AM 47.7°F8.7°C 40.4°F4.7°C 76% 4.3 mph NW6.9 kmh NW 7.2 mph11.6 kmh 28.53 in966.1 mb 0.00 in0.0 mm 0.00 in/hr0.0 mm/hr 0.00 in0.0 mm
06:19 AM 47.8°F8.8°C 40.4°F4.7°C 75% 5.9 mph WNW9.5 kmh WNW 8.7 mph14.0 kmh 28.53 in966.1 mb 0.00 in0.0 mm 0.00 in/hr0.0 mm/hr 0.00 in0.0 mm
06:24 AM 47.9°F8.8°C 40.4°F4.7°C 75% 3.7 mph NW6.0 kmh NW 9.8 mph15.8 kmh 28.53 in966.1 mb 0.00 in0.0 mm 0.00 in/hr0.0 mm/hr 0.00 in0.0 mm
06:29 AM 48.2°F9.0°C 40.5°F4.7°C 74% 4.9 mph NW7.9 kmh NW 9.8 mph15.8 kmh 28.53 in966.1 mb 0.00 in0.0 mm 0.00 in/hr0.0 mm/hr 0.00 in0.0 mm
06:34 AM 48.6°F9.2°C 40.1°F4.5°C 72% 4.6 mph NW7.4 kmh NW 7.2 mph11.6 kmh 28.53 in966.1 mb 0.00 in0.0 mm 0.00 in/hr0.0 mm/hr 0.00 in0.0 mm
06:39 AM 48.9°F9.4°C 40.1°F4.5°C 71% 3.5 mph WNW5.6 kmh WNW 7.2 mph11.6 kmh 28.53 in966.1 mb 0.00 in0.0 mm 0.00 in/hr0.0 mm/hr 0.00 in0.0 mm
06:44 AM 49.1°F9.5°C 40.1°F4.5°C 71% 3.2 mph NW5.1 kmh NW 5.6 mph9.0 kmh 28.53 in966.1 mb 0.00 in0.0 mm 0.00 in/hr0.0 mm/hr 0.00 in0.0 mm
06:49 AM 49.2°F9.6°C 40.0°F4.4°C 70% 2.1 mph WNW3.4 kmh WNW 5.6 mph9.0 kmh 28.53 in966.1 mb 0.00 in0.0 mm 0.00 in/hr0.0 mm/hr 0.00 in0.0 mm
06:54 AM 49.4°F9.7°C 40.0°F4.4°C 70% 2.7 mph W4.3 kmh W 4.9 mph7.9 kmh 28.53 in966.1 mb 0.00 in0.0 mm 0.00 in/hr0.0 mm/hr 0.00 in0.0 mm
06:59 AM 49.5°F9.7°C 39.9°F4.4°C 69% 2.0 mph WSW3.2 kmh WSW 4.0 mph6.4 kmh 28.53 in966.1 mb 0.00 in0.0 mm 0.00 in/hr0.0 mm/hr 0.00 in0.0 mm
07:04 AM 49.7°F9.8°C 39.9°F4.4°C 68% 3.0 mph W4.8 kmh W 4.3 mph6.9 kmh 28.53 in966.1 mb 0.00 in0.0 mm 0.00 in/hr0.0 mm/hr 0.00 in0.0 mm
07:09 AM 50.1°F10.1°C 40.2°F4.6°C 68% 0.6 mph NE1.0 kmh NE 4.3 mph6.9 kmh 28.53 in966.1 mb 0.00 in0.0 mm 0.00 in/hr0.0 mm/hr 0.00 in0.0 mm
07:14 AM 50.8°F10.4°C 40.5°F4.7°C 68% 0.6 mph NNE1.0 kmh NNE 1.6 mph2.6 kmh 28.53 in966.1 mb 0.00 in0.0 mm 0.00 in/hr0.0 mm/hr 0.00 in0.0 mm
07:19 AM 51.2°F10.7°C 40.3°F4.6°C 64% 2.1 mph SE3.4 kmh SE 3.8 mph6.1 kmh 28.53 in966.1 mb 0.00 in0.0 mm 0.00 in/hr0.0 mm/hr 0.00 in0.0 mm
07:24 AM 51.4°F10.8°C 39.2°F4.0°C 62% 1.8 mph NE2.9 kmh NE 5.4 mph8.7 kmh 28.53 in966.1 mb 0.00 in0.0 mm 0.00 in/hr0.0 mm/hr 0.00 in0.0 mm
07:29 AM 51.4°F10.8°C 38.7°F3.7°C 61% 2.5 mph NE4.0 kmh NE 5.4 mph8.7 kmh 28.53 in966.1 mb 0.00 in0.0 mm 0.00 in/hr0.0 mm/hr 0.00 in0.0 mm
07:34 AM 51.4°F10.8°C 38.2°F3.4°C 61% 3.0 mph N4.8 kmh N 6.0 mph9.7 kmh 28.53 in966.1 mb 0.00 in0.0 mm 0.00 in/hr0.0 mm/hr 0.00 in0.0 mm
07:39 AM 51.4°F10.8°C 37.9°F3.3°C 60% 1.7 mph NE2.7 kmh NE 6.0 mph9.7 kmh 28.53 in966.1 mb 0.00 in0.0 mm 0.00 in/hr0.0 mm/hr 0.00 in0.0 mm
07:44 AM 51.4°F10.8°C 37.2°F2.9°C 58% 4.3 mph NNE6.9 kmh NNE 8.5 mph13.7 kmh 28.53 in966.1 mb 0.00 in0.0 mm 0.00 in/hr0.0 mm/hr 0.00 in0.0 mm
07:49 AM 51.4°F10.8°C 37.5°F3.1°C 59% 3.7 mph NE6.0 kmh NE 8.5 mph13.7 kmh 28.53 in966.1 mb 0.00 in0.0 mm 0.00 in/hr0.0 mm/hr 0.00 in0.0 mm
07:54 AM 51.3°F10.7°C 37.2°F2.9°C 58% 5.2 mph NE8.4 kmh NE 8.5 mph13.7 kmh 28.53 in966.1 mb 0.00 in0.0 mm 0.00 in/hr0.0 mm/hr 0.00 in0.0 mm
07:59 AM 51.2°F10.7°C 37.4°F3.0°C 59% 4.4 mph NE7.1 kmh NE 7.2 mph11.6 kmh 28.53 in966.1 mb 0.00 in0.0 mm 0.00 in/hr0.0 mm/hr 0.00 in0.0 mm
08:04 AM 51.1°F10.6°C 37.3°F2.9°C 59% 4.5 mph NNE7.2 kmh NNE 7.6 mph12.2 kmh 28.53 in966.1 mb 0.00 in0.0 mm 0.00 in/hr0.0 mm/hr 0.00 in0.0 mm
08:09 AM 51.0°F10.6°C 37.3°F2.9°C 60% 4.3 mph NNE6.9 kmh NNE 7.6 mph12.2 kmh 28.53 in966.1 mb 0.00 in0.0 mm 0.00 in/hr0.0 mm/hr 0.00 in0.0 mm
08:14 AM 50.9°F10.5°C 37.2°F2.9°C 60% 5.3 mph NE8.5 kmh NE 8.5 mph13.7 kmh 28.53 in966.1 mb 0.00 in0.0 mm 0.00 in/hr0.0 mm/hr 0.00 in0.0 mm
08:19 AM 50.7°F10.4°C 37.4°F3.0°C 60% 6.3 mph NNE10.1 kmh NNE 8.5 mph13.7 kmh 28.53 in966.1 mb 0.00 in0.0 mm 0.00 in/hr0.0 mm/hr 0.00 in0.0 mm
08:24 AM 50.6°F10.3°C 37.2°F2.9°C 60% 4.9 mph NE7.9 kmh NE 6.3 mph10.1 kmh 28.53 in966.1 mb 0.00 in0.0 mm 0.00 in/hr0.0 mm/hr 0.00 in0.0 mm
08:29 AM 50.5°F10.3°C 37.5°F3.1°C 61% 4.5 mph NE7.2 kmh NE 5.4 mph8.7 kmh 28.53 in966.1 mb 0.00 in0.0 mm 0.00 in/hr0.0 mm/hr 0.00 in0.0 mm
08:34 AM 50.4°F10.2°C 37.7°F3.2°C 62% 4.0 mph NNE6.4 kmh NNE 8.7 mph14.0 kmh 28.53 in966.1 mb 0.00 in0.0 mm 0.00 in/hr0.0 mm/hr 0.00 in0.0 mm
08:39 AM 50.2°F10.1°C 38.1°F3.4°C 64% 5.8 mph NE9.3 kmh NE 8.7 mph14.0 kmh 28.53 in966.1 mb 0.00 in0.0 mm 0.00 in/hr0.0 mm/hr 0.00 in0.0 mm
08:44 AM 50.0°F10.0°C 38.4°F3.6°C 64% 4.0 mph NE6.4 kmh NE 5.4 mph8.7 kmh 28.53 in966.1 mb 0.00 in0.0 mm 0.00 in/hr0.0 mm/hr 0.00 in0.0 mm
08:49 AM 49.9°F9.9°C 38.5°F3.6°C 64% 4.8 mph NNE7.7 kmh NNE 5.8 mph9.3 kmh 28.53 in966.1 mb 0.00 in0.0 mm 0.00 in/hr0.0 mm/hr 0.00 in0.0 mm
08:54 AM 49.8°F9.9°C 38.5°F3.6°C 65% 4.1 mph NNE6.6 kmh NNE 7.8 mph12.6 kmh 28.53 in966.1 mb 0.00 in0.0 mm 0.00 in/hr0.0 mm/hr 0.00 in0.0 mm
08:59 AM 49.8°F9.9°C 38.6°F3.7°C 65% 3.6 mph NNE5.8 kmh NNE 7.8 mph12.6 kmh 28.50 in965.1 mb 0.00 in0.0 mm 0.00 in/hr0.0 mm/hr 0.00 in0.0 mm
09:04 AM 49.8°F9.9°C 38.5°F3.6°C 65% 2.5 mph NNE4.0 kmh NNE 4.9 mph7.9 kmh 28.50 in965.1 mb 0.00 in0.0 mm 0.00 in/hr0.0 mm/hr 0.00 in0.0 mm
09:09 AM 49.9°F9.9°C 38.1°F3.4°C 63% 3.8 mph NNE6.1 kmh NNE 3.8 mph6.1 kmh 28.50 in965.1 mb 0.00 in0.0 mm 0.00 in/hr0.0 mm/hr 0.00 in0.0 mm
09:14 AM 50.1°F10.1°C 38.0°F3.3°C 63% 2.3 mph NW3.7 kmh NW 3.8 mph6.1 kmh 28.50 in965.1 mb 0.00 in0.0 mm 0.00 in/hr0.0 mm/hr 0.00 in0.0 mm
09:19 AM 50.2°F10.1°C 38.6°F3.7°C 65% 2.0 mph SSW3.2 kmh SSW 5.6 mph9.0 kmh 28.50 in965.1 mb 0.00 in0.0 mm 0.00 in/hr0.0 mm/hr 0.00 in0.0 mm
09:24 AM 50.2°F10.1°C 38.9°F3.8°C 65% 1.6 mph NW2.6 kmh NW 5.6 mph9.0 kmh 28.50 in965.1 mb 0.00 in0.0 mm 0.00 in/hr0.0 mm/hr 0.00 in0.0 mm
09:29 AM 50.2°F10.1°C 39.3°F4.1°C 66% 1.6 mph NW2.6 kmh NW 3.6 mph5.8 kmh 28.50 in965.1 mb 0.00 in0.0 mm 0.00 in/hr0.0 mm/hr 0.00 in0.0 mm
09:34 AM 50.2°F10.1°C 39.2°F4.0°C 66% 2.9 mph W4.7 kmh W 4.7 mph7.6 kmh 28.50 in965.1 mb 0.00 in0.0 mm 0.00 in/hr0.0 mm/hr 0.00 in0.0 mm
09:41 AM 50.4°F10.2°C 37.8°F3.2°C 62% 1.6 mph SSW2.6 kmh SSW 6.3 mph10.1 kmh 28.50 in965.1 mb 0.00 in0.0 mm 0.00 in/hr0.0 mm/hr 0.00 in0.0 mm
09:46 AM 50.7°F10.4°C 38.0°F3.3°C 62% 2.0 mph SW3.2 kmh SW 6.3 mph10.1 kmh 28.50 in965.1 mb 0.00 in0.0 mm 0.00 in/hr0.0 mm/hr 0.00 in0.0 mm
09:51 AM 50.8°F10.4°C 37.7°F3.2°C 59% 3.8 mph NE6.1 kmh NE 6.7 mph10.8 kmh 28.50 in965.1 mb 0.00 in0.0 mm 0.00 in/hr0.0 mm/hr 0.00 in0.0 mm
09:58 AM 51.2°F10.7°C 37.2°F2.9°C 59% 1.8 mph NNE2.9 kmh NNE 6.7 mph10.8 kmh 28.50 in965.1 mb 0.00 in0.0 mm 0.00 in/hr0.0 mm/hr 0.00 in0.0 mm
10:03 AM 51.5°F10.8°C 36.8°F2.7°C 56% 4.0 mph N6.4 kmh N 6.5 mph10.5 kmh 28.50 in965.1 mb 0.00 in0.0 mm 0.00 in/hr0.0 mm/hr 0.00 in0.0 mm
10:08 AM 51.9°F11.1°C 36.2°F2.3°C 54% 2.9 mph NW4.7 kmh NW 6.5 mph10.5 kmh 28.50 in965.1 mb 0.00 in0.0 mm 0.00 in/hr0.0 mm/hr 0.00 in0.0 mm
10:13 AM 52.5°F11.4°C 36.2°F2.3°C 52% 3.4 mph NE5.5 kmh NE 7.2 mph11.6 kmh 28.47 in964.1 mb 0.00 in0.0 mm 0.00 in/hr0.0 mm/hr 0.00 in0.0 mm
10:18 AM 53.2°F11.8°C 36.5°F2.5°C 53% 5.0 mph N8.0 kmh N 9.6 mph15.4 kmh 28.47 in964.1 mb 0.00 in0.0 mm 0.00 in/hr0.0 mm/hr 0.00 in0.0 mm
10:23 AM 54.2°F12.3°C 37.3°F2.9°C 52% 4.9 mph NE7.9 kmh NE 9.6 mph15.4 kmh 28.47 in964.1 mb 0.00 in0.0 mm 0.00 in/hr0.0 mm/hr 0.00 in0.0 mm
10:28 AM 55.6°F13.1°C 38.5°F3.6°C 53% 3.2 mph NNE5.1 kmh NNE 7.6 mph12.2 kmh 28.50 in965.1 mb 0.00 in0.0 mm 0.00 in/hr0.0 mm/hr 0.00 in0.0 mm
10:33 AM 56.5°F13.6°C 38.6°F3.7°C 50% 6.4 mph NNE10.3 kmh NNE 8.5 mph13.7 kmh 28.50 in965.1 mb 0.00 in0.0 mm 0.00 in/hr0.0 mm/hr 0.00 in0.0 mm
10:38 AM 57.1°F13.9°C 38.7°F3.7°C 49% 4.6 mph NE7.4 kmh NE 12.8 mph20.6 kmh 28.50 in965.1 mb 0.00 in0.0 mm 0.00 in/hr0.0 mm/hr 0.00 in0.0 mm
10:43 AM 58.1°F14.5°C 39.3°F4.1°C 49% 6.0 mph NNE9.7 kmh NNE 12.8 mph20.6 kmh 28.53 in966.1 mb 0.00 in0.0 mm 0.00 in/hr0.0 mm/hr 0.00 in0.0 mm
10:48 AM 57.2°F14.0°C 38.3°F3.5°C 50% 4.9 mph NE7.9 kmh NE 10.7 mph17.2 kmh 28.53 in966.1 mb 0.00 in0.0 mm 0.00 in/hr0.0 mm/hr 0.00 in0.0 mm
10:53 AM 56.6°F13.7°C 37.9°F3.3°C 49% 3.3 mph NNE5.3 kmh NNE 10.7 mph17.2 kmh 28.53 in966.1 mb 0.00 in0.0 mm 0.00 in/hr0.0 mm/hr 0.00 in0.0 mm
10:58 AM 56.2°F13.4°C 37.4°F3.0°C 49% 5.1 mph NNE8.2 kmh NNE 9.2 mph14.8 kmh 28.50 in965.1 mb 0.00 in0.0 mm 0.00 in/hr0.0 mm/hr 0.00 in0.0 mm
11:03 AM 55.9°F13.3°C 37.6°F3.1°C 50% 4.1 mph NNE6.6 kmh NNE 8.7 mph14.0 kmh 28.50 in965.1 mb 0.00 in0.0 mm 0.00 in/hr0.0 mm/hr 0.00 in0.0 mm
11:08 AM 55.9°F13.3°C 37.6°F3.1°C 50% 3.7 mph N6.0 kmh N 6.5 mph10.5 kmh 28.50 in965.1 mb 0.00 in0.0 mm 0.00 in/hr0.0 mm/hr 0.00 in0.0 mm
11:13 AM 55.8°F13.2°C 37.4°F3.0°C 50% 3.1 mph N5.0 kmh N 6.3 mph10.1 kmh 28.50 in965.1 mb 0.00 in0.0 mm 0.00 in/hr0.0 mm/hr 0.00 in0.0 mm
11:18 AM 55.5°F13.1°C 37.2°F2.9°C 50% 3.4 mph NNE5.5 kmh NNE 5.8 mph9.3 kmh 28.50 in965.1 mb 0.00 in0.0 mm 0.00 in/hr0.0 mm/hr 0.00 in0.0 mm
11:23 AM 55.3°F12.9°C 37.3°F2.9°C 51% 3.1 mph NNW5.0 kmh NNW 5.8 mph9.3 kmh 28.50 in965.1 mb 0.00 in0.0 mm 0.00 in/hr0.0 mm/hr 0.00 in0.0 mm
11:28 AM 55.1°F12.8°C 37.3°F2.9°C 51% 2.5 mph NNE4.0 kmh NNE 3.6 mph5.8 kmh 28.50 in965.1 mb 0.00 in0.0 mm 0.00 in/hr0.0 mm/hr 0.00 in0.0 mm
11:33 AM 55.0°F12.8°C 37.3°F2.9°C 51% 2.7 mph N4.3 kmh N 3.6 mph5.8 kmh 28.50 in965.1 mb 0.00 in0.0 mm 0.00 in/hr0.0 mm/hr 0.00 in0.0 mm
11:38 AM 55.0°F12.8°C 37.3°F2.9°C 51% 3.6 mph NNW5.8 kmh NNW 3.8 mph6.1 kmh 28.50 in965.1 mb 0.00 in0.0 mm 0.00 in/hr0.0 mm/hr 0.00 in0.0 mm
11:43 AM 55.0°F12.8°C 37.0°F2.8°C 50% 5.4 mph N8.7 kmh N 5.8 mph9.3 kmh 28.50 in965.1 mb 0.00 in0.0 mm 0.00 in/hr0.0 mm/hr 0.00 in0.0 mm
11:48 AM 55.0°F12.8°C 37.2°F2.9°C 51% 2.5 mph NE4.0 kmh NE 5.8 mph9.3 kmh 28.50 in965.1 mb 0.00 in0.0 mm 0.00 in/hr0.0 mm/hr 0.00 in0.0 mm
11:53 AM 55.0°F12.8°C 37.0°F2.8°C 50% 2.5 mph NE4.0 kmh NE 5.8 mph9.3 kmh 28.50 in965.1 mb 0.00 in0.0 mm 0.00 in/hr0.0 mm/hr 0.00 in0.0 mm
11:58 AM 55.0°F12.8°C 36.9°F2.7°C 50% 2.5 mph NNW4.0 kmh NNW 2.7 mph4.3 kmh 28.47 in964.1 mb 0.00 in0.0 mm 0.00 in/hr0.0 mm/hr 0.00 in0.0 mm
12:03 PM 54.9°F12.7°C 36.6°F2.6°C 50% 3.4 mph NW5.5 kmh NW 2.5 mph4.0 kmh 28.47 in964.1 mb 0.00 in0.0 mm 0.00 in/hr0.0 mm/hr 0.00 in0.0 mm
12:08 PM 54.9°F12.7°C 36.7°F2.6°C 50% 2.9 mph N4.7 kmh N 2.5 mph4.0 kmh 28.47 in964.1 mb 0.00 in0.0 mm 0.00 in/hr0.0 mm/hr 0.00 in0.0 mm
12:13 PM 55.0°F12.8°C 37.1°F2.8°C 51% 2.9 mph N4.7 kmh N 2.5 mph4.0 kmh 28.50 in965.1 mb 0.00 in0.0 mm 0.00 in/hr0.0 mm/hr 0.00 in0.0 mm
12:18 PM 55.0°F12.8°C 37.0°F2.8°C 50% 3.7 mph NNE6.0 kmh NNE 3.4 mph5.5 kmh 28.50 in965.1 mb 0.00 in0.0 mm 0.00 in/hr0.0 mm/hr 0.00 in0.0 mm
12:23 PM 55.0°F12.8°C 37.2°F2.9°C 51% 4.0 mph NNE6.4 kmh NNE 3.4 mph5.5 kmh 28.50 in965.1 mb 0.00 in0.0 mm 0.00 in/hr0.0 mm/hr 0.00 in0.0 mm
12:28 PM 54.9°F12.7°C 37.1°F2.8°C 51% 3.3 mph NW5.3 kmh NW 5.8 mph9.3 kmh 28.47 in964.1 mb 0.00 in0.0 mm 0.00 in/hr0.0 mm/hr 0.00 in0.0 mm
12:33 PM 54.9°F12.7°C 37.0°F2.8°C 51% 3.7 mph N6.0 kmh N 10.1 mph16.3 kmh 28.47 in964.1 mb 0.00 in0.0 mm 0.00 in/hr0.0 mm/hr 0.00 in0.0 mm
12:38 PM 55.0°F12.8°C 37.3°F2.9°C 51% 3.0 mph N4.8 kmh N 10.1 mph16.3 kmh 28.47 in964.1 mb 0.00 in0.0 mm 0.00 in/hr0.0 mm/hr 0.00 in0.0 mm
12:43 PM 55.2°F12.9°C 37.3°F2.9°C 50% 3.7 mph N6.0 kmh N 9.6 mph15.4 kmh 28.47 in964.1 mb 0.00 in0.0 mm 0.00 in/hr0.0 mm/hr 0.00 in0.0 mm
12:48 PM 55.2°F12.9°C 37.4°F3.0°C 51% 2.7 mph N4.3 kmh N 9.6 mph15.4 kmh 28.47 in964.1 mb 0.00 in0.0 mm 0.00 in/hr0.0 mm/hr 0.00 in0.0 mm
12:53 PM 55.3°F12.9°C 37.3°F2.9°C 50% 4.0 mph NW6.4 kmh NW 7.6 mph12.2 kmh 28.47 in964.1 mb 0.00 in0.0 mm 0.00 in/hr0.0 mm/hr 0.00 in0.0 mm
12:58 PM 55.5°F13.1°C 37.2°F2.9°C 50% 3.5 mph N5.6 kmh N 7.6 mph12.2 kmh 28.47 in964.1 mb 0.00 in0.0 mm 0.00 in/hr0.0 mm/hr 0.00 in0.0 mm
01:03 PM 55.8°F13.2°C 37.5°F3.1°C 50% 3.1 mph N5.0 kmh N 6.3 mph10.1 kmh 28.47 in964.1 mb 0.00 in0.0 mm 0.00 in/hr0.0 mm/hr 0.00 in0.0 mm
01:08 PM 56.1°F13.4°C 37.7°F3.2°C 50% 3.2 mph N5.1 kmh N 6.3 mph10.1 kmh 28.47 in964.1 mb 0.00 in0.0 mm 0.00 in/hr0.0 mm/hr 0.00 in0.0 mm
01:13 PM 56.5°F13.6°C 38.1°F3.4°C 50% 3.0 mph N4.8 kmh N 5.8 mph9.3 kmh 28.47 in964.1 mb 0.00 in0.0 mm 0.00 in/hr0.0 mm/hr 0.00 in0.0 mm
01:18 PM 56.8°F13.8°C 38.1°F3.4°C 49% 3.5 mph N5.6 kmh N 5.8 mph9.3 kmh 28.47 in964.1 mb 0.00 in0.0 mm 0.00 in/hr0.0 mm/hr 0.00 in0.0 mm
01:23 PM 57.0°F13.9°C 38.2°F3.4°C 49% 3.6 mph NW5.8 kmh NW 6.0 mph9.7 kmh 28.47 in964.1 mb 0.00 in0.0 mm 0.00 in/hr0.0 mm/hr 0.00 in0.0 mm
01:28 PM 57.1°F13.9°C 38.0°F3.3°C 49% 2.5 mph NNE4.0 kmh NNE 6.0 mph9.7 kmh 28.47 in964.1 mb 0.00 in0.0 mm 0.00 in/hr0.0 mm/hr 0.00 in0.0 mm
01:33 PM 57.2°F14.0°C 38.0°F3.3°C 49% 2.0 mph N3.2 kmh N 5.6 mph9.0 kmh 28.47 in964.1 mb 0.00 in0.0 mm 0.00 in/hr0.0 mm/hr 0.00 in0.0 mm
01:38 PM 57.5°F14.2°C 38.3°F3.5°C 48% 2.6 mph NE4.2 kmh NE 4.7 mph7.6 kmh 28.47 in964.1 mb 0.00 in0.0 mm 0.00 in/hr0.0 mm/hr 0.00 in0.0 mm
01:43 PM 57.7°F14.3°C 38.4°F3.6°C 48% 3.5 mph N5.6 kmh N 6.0 mph9.7 kmh 28.47 in964.1 mb 0.00 in0.0 mm 0.00 in/hr0.0 mm/hr 0.00 in0.0 mm
01:48 PM 57.7°F14.3°C 38.2°F3.4°C 48% 4.6 mph N7.4 kmh N 6.0 mph9.7 kmh 28.47 in964.1 mb 0.00 in0.0 mm 0.00 in/hr0.0 mm/hr 0.00 in0.0 mm
01:53 PM 57.6°F14.2°C 38.0°F3.3°C 48% 3.8 mph N6.1 kmh N 6.0 mph9.7 kmh 28.47 in964.1 mb 0.00 in0.0 mm 0.00 in/hr0.0 mm/hr 0.00 in0.0 mm
01:58 PM 57.4°F14.1°C 37.8°F3.2°C 48% 3.5 mph NE5.6 kmh NE 5.6 mph9.0 kmh 28.44 in963.1 mb 0.00 in0.0 mm 0.00 in/hr0.0 mm/hr 0.00 in0.0 mm
02:03 PM 57.4°F14.1°C 37.9°F3.3°C 48% 2.5 mph NNW4.0 kmh NNW 5.4 mph8.7 kmh 28.44 in963.1 mb 0.00 in0.0 mm 0.00 in/hr0.0 mm/hr 0.00 in0.0 mm
02:08 PM 57.4°F14.1°C 37.9°F3.3°C 48% 1.4 mph NNW2.3 kmh NNW 6.0 mph9.7 kmh 28.44 in963.1 mb 0.00 in0.0 mm 0.00 in/hr0.0 mm/hr 0.00 in0.0 mm
02:13 PM 57.4°F14.1°C 37.9°F3.3°C 48% 2.7 mph NNW4.3 kmh NNW 7.6 mph12.2 kmh 28.44 in963.1 mb 0.00 in0.0 mm 0.00 in/hr0.0 mm/hr 0.00 in0.0 mm
02:18 PM 57.2°F14.0°C 37.7°F3.2°C 48% 2.7 mph NNE4.3 kmh NNE 7.6 mph12.2 kmh 28.44 in963.1 mb 0.00 in0.0 mm 0.00 in/hr0.0 mm/hr 0.00 in0.0 mm
02:24 PM 56.9°F13.8°C 37.6°F3.1°C 48% 2.7 mph NNE4.3 kmh NNE 3.1 mph5.0 kmh 28.44 in963.1 mb 0.00 in0.0 mm 0.00 in/hr0.0 mm/hr 0.00 in0.0 mm
02:29 PM 56.8°F13.8°C 37.4°F3.0°C 48% Calm Calm 3.1 mph5.0 kmh 28.44 in963.1 mb 0.00 in0.0 mm 0.00 in/hr0.0 mm/hr 0.00 in0.0 mm
02:34 PM 56.7°F13.7°C 37.6°F3.1°C 49% 3.8 mph NNW6.1 kmh NNW 3.8 mph6.1 kmh 28.44 in963.1 mb 0.00 in0.0 mm 0.00 in/hr0.0 mm/hr 0.00 in0.0 mm
02:39 PM 56.7°F13.7°C 37.4°F3.0°C 48% 3.8 mph NNW6.1 kmh NNW 3.8 mph6.1 kmh 28.44 in963.1 mb 0.00 in0.0 mm 0.00 in/hr0.0 mm/hr 0.00 in0.0 mm
02:44 PM 56.8°F13.8°C 37.6°F3.1°C 48% 3.8 mph NNW6.1 kmh NNW 3.8 mph6.1 kmh 28.44 in963.1 mb 0.00 in0.0 mm 0.00 in/hr0.0 mm/hr 0.00 in0.0 mm
02:49 PM 57.0°F13.9°C 37.8°F3.2°C 48% 5.3 mph N8.5 kmh N 7.2 mph11.6 kmh 28.44 in963.1 mb 0.00 in0.0 mm 0.00 in/hr0.0 mm/hr 0.00 in0.0 mm
02:54 PM 57.2°F14.0°C 37.7°F3.2°C 48% 3.2 mph NE5.1 kmh NE 7.2 mph11.6 kmh 28.44 in963.1 mb 0.00 in0.0 mm 0.00 in/hr0.0 mm/hr 0.00 in0.0 mm
02:59 PM 57.2°F14.0°C 37.7°F3.2°C 48% 3.5 mph NNW5.6 kmh NNW 7.2 mph11.6 kmh 28.44 in963.1 mb 0.00 in0.0 mm 0.00 in/hr0.0 mm/hr 0.00 in0.0 mm
03:04 PM 57.2°F14.0°C 37.7°F3.2°C 48% 2.7 mph NE4.3 kmh NE 7.2 mph11.6 kmh 28.44 in963.1 mb 0.00 in0.0 mm 0.00 in/hr0.0 mm/hr 0.00 in0.0 mm
03:09 PM 57.2°F14.0°C 37.2°F2.9°C 47% 5.3 mph NNW8.5 kmh NNW 7.2 mph11.6 kmh 28.44 in963.1 mb 0.00 in0.0 mm 0.00 in/hr0.0 mm/hr 0.00 in0.0 mm
03:14 PM 57.0°F13.9°C 37.5°F3.1°C 48% 4.3 mph N6.9 kmh N 8.7 mph14.0 kmh 28.44 in963.1 mb 0.00 in0.0 mm 0.00 in/hr0.0 mm/hr 0.00 in0.0 mm
03:19 PM 57.0°F13.9°C 37.5°F3.1°C 48% 3.9 mph N6.3 kmh N 8.7 mph14.0 kmh 28.44 in963.1 mb 0.00 in0.0 mm 0.00 in/hr0.0 mm/hr 0.00 in0.0 mm
03:24 PM 57.1°F13.9°C 37.4°F3.0°C 47% 3.9 mph NNE6.3 kmh NNE 6.9 mph11.1 kmh 28.44 in963.1 mb 0.00 in0.0 mm 0.00 in/hr0.0 mm/hr 0.00 in0.0 mm
03:29 PM 57.2°F14.0°C 37.2°F2.9°C 47% 3.3 mph NW5.3 kmh NW 5.4 mph8.7 kmh 28.44 in963.1 mb 0.00 in0.0 mm 0.00 in/hr0.0 mm/hr 0.00 in0.0 mm
03:34 PM 57.2°F14.0°C 37.7°F3.2°C 48% 3.2 mph NNW5.1 kmh NNW 5.8 mph9.3 kmh 28.44 in963.1 mb 0.00 in0.0 mm 0.00 in/hr0.0 mm/hr 0.00 in0.0 mm
03:39 PM 57.2°F14.0°C 37.4°F3.0°C 48% 2.9 mph N4.7 kmh N 5.8 mph9.3 kmh 28.44 in963.1 mb 0.00 in0.0 mm 0.00 in/hr0.0 mm/hr 0.00 in0.0 mm
03:44 PM 57.2°F14.0°C 37.5°F3.1°C 48% 4.3 mph NNE6.9 kmh NNE 10.5 mph16.9 kmh 28.44 in963.1 mb 0.00 in0.0 mm 0.00 in/hr0.0 mm/hr 0.00 in0.0 mm
03:49 PM 57.1°F13.9°C 37.6°F3.1°C 48% 4.0 mph N6.4 kmh N 10.5 mph16.9 kmh 28.44 in963.1 mb 0.00 in0.0 mm 0.00 in/hr0.0 mm/hr 0.00 in0.0 mm
03:54 PM 57.0°F13.9°C 37.5°F3.1°C 48% 4.3 mph N6.9 kmh N 7.4 mph11.9 kmh 28.44 in963.1 mb 0.00 in0.0 mm 0.00 in/hr0.0 mm/hr 0.00 in0.0 mm
03:59 PM 56.9°F13.8°C 37.4°F3.0°C 48% 3.7 mph NE6.0 kmh NE 6.3 mph10.1 kmh 28.41 in962.1 mb 0.00 in0.0 mm 0.00 in/hr0.0 mm/hr 0.00 in0.0 mm
04:04 PM 56.8°F13.8°C 37.4°F3.0°C 48% 2.7 mph N4.3 kmh N 6.3 mph10.1 kmh 28.41 in962.1 mb 0.00 in0.0 mm 0.00 in/hr0.0 mm/hr 0.00 in0.0 mm
04:09 PM 56.8°F13.8°C 37.5°F3.1°C 48% 3.7 mph N6.0 kmh N 6.3 mph10.1 kmh 28.41 in962.1 mb 0.00 in0.0 mm 0.00 in/hr0.0 mm/hr 0.00 in0.0 mm
04:14 PM 56.7°F13.7°C 37.4°F3.0°C 48% 3.0 mph N4.8 kmh N 6.3 mph10.1 kmh 28.41 in962.1 mb 0.00 in0.0 mm 0.00 in/hr0.0 mm/hr 0.00 in0.0 mm
04:19 PM 56.6°F13.7°C 37.5°F3.1°C 48% 4.0 mph NNE6.4 kmh NNE 6.9 mph11.1 kmh 28.41 in962.1 mb 0.00 in0.0 mm 0.00 in/hr0.0 mm/hr 0.00 in0.0 mm
04:24 PM 56.5°F13.6°C 37.5°F3.1°C 49% 3.6 mph NNW5.8 kmh NNW 6.9 mph11.1 kmh 28.41 in962.1 mb 0.00 in0.0 mm 0.00 in/hr0.0 mm/hr 0.00 in0.0 mm
04:29 PM 56.6°F13.7°C 37.5°F3.1°C 49% 4.3 mph NNE6.9 kmh NNE 9.8 mph15.8 kmh 28.44 in963.1 mb 0.00 in0.0 mm 0.00 in/hr0.0 mm/hr 0.00 in0.0 mm
04:34 PM 56.7°F13.7°C 37.4°F3.0°C 49% 3.7 mph NNW6.0 kmh NNW 9.8 mph15.8 kmh 28.44 in963.1 mb 0.00 in0.0 mm 0.00 in/hr0.0 mm/hr 0.00 in0.0 mm
04:39 PM 56.6°F13.7°C 37.7°F3.2°C 49% 4.4 mph NNE7.1 kmh NNE 8.5 mph13.7 kmh 28.44 in963.1 mb 0.00 in0.0 mm 0.00 in/hr0.0 mm/hr 0.00 in0.0 mm
04:44 PM 56.5°F13.6°C 37.5°F3.1°C 49% 3.0 mph NNE4.8 kmh NNE 7.4 mph11.9 kmh 28.44 in963.1 mb 0.00 in0.0 mm 0.00 in/hr0.0 mm/hr 0.00 in0.0 mm
04:49 PM 56.5°F13.6°C 37.6°F3.1°C 49% 3.2 mph NNE5.1 kmh NNE 7.4 mph11.9 kmh 28.44 in963.1 mb 0.00 in0.0 mm 0.00 in/hr0.0 mm/hr 0.00 in0.0 mm
04:54 PM 56.5°F13.6°C 37.6°F3.1°C 49% 4.0 mph N6.4 kmh N 8.7 mph14.0 kmh 28.44 in963.1 mb 0.00 in0.0 mm 0.00 in/hr0.0 mm/hr 0.00 in0.0 mm
04:59 PM 56.4°F13.6°C 37.4°F3.0°C 48% 3.2 mph NW5.1 kmh NW 8.7 mph14.0 kmh 28.47 in964.1 mb 0.00 in0.0 mm 0.00 in/hr0.0 mm/hr 0.00 in0.0 mm
05:04 PM 56.3°F13.5°C 37.3°F2.9°C 49% 5.3 mph N8.5 kmh N 8.1 mph13.0 kmh 28.47 in964.1 mb 0.00 in0.0 mm 0.00 in/hr0.0 mm/hr 0.00 in0.0 mm
05:09 PM 56.3°F13.5°C 37.4°F3.0°C 49% 2.7 mph N4.3 kmh N 8.1 mph13.0 kmh 28.47 in964.1 mb 0.00 in0.0 mm 0.00 in/hr0.0 mm/hr 0.00 in0.0 mm
05:14 PM 56.1°F13.4°C 37.2°F2.9°C 49% 5.9 mph NNE9.5 kmh NNE 9.6 mph15.4 kmh 28.47 in964.1 mb 0.00 in0.0 mm 0.00 in/hr0.0 mm/hr 0.00 in0.0 mm
05:19 PM 56.1°F13.4°C 37.0°F2.8°C 48% 4.7 mph NNE7.6 kmh NNE 9.8 mph15.8 kmh 28.47 in964.1 mb 0.00 in0.0 mm 0.00 in/hr0.0 mm/hr 0.00 in0.0 mm
05:24 PM 56.1°F13.4°C 36.7°F2.6°C 48% 4.5 mph N7.2 kmh N 9.8 mph15.8 kmh 28.47 in964.1 mb 0.00 in0.0 mm 0.00 in/hr0.0 mm/hr 0.00 in0.0 mm
05:29 PM 56.1°F13.4°C 36.7°F2.6°C 48% 3.8 mph N6.1 kmh N 7.4 mph11.9 kmh 28.47 in964.1 mb 0.00 in0.0 mm 0.00 in/hr0.0 mm/hr 0.00 in0.0 mm
05:34 PM 55.9°F13.3°C 36.6°F2.6°C 48% 5.5 mph NNE8.9 kmh NNE 7.8 mph12.6 kmh 28.47 in964.1 mb 0.00 in0.0 mm 0.00 in/hr0.0 mm/hr 0.00 in0.0 mm
05:39 PM 55.9°F13.3°C 36.6°F2.6°C 48% 5.3 mph N8.5 kmh N 7.8 mph12.6 kmh 28.47 in964.1 mb 0.00 in0.0 mm 0.00 in/hr0.0 mm/hr 0.00 in0.0 mm
05:44 PM 55.9°F13.3°C 36.6°F2.6°C 48% 4.4 mph N7.1 kmh N 10.5 mph16.9 kmh 28.47 in964.1 mb 0.00 in0.0 mm 0.00 in/hr0.0 mm/hr 0.00 in0.0 mm
05:49 PM 55.8°F13.2°C 36.4°F2.4°C 48% 4.8 mph NNE7.7 kmh NNE 10.5 mph16.9 kmh 28.47 in964.1 mb 0.00 in0.0 mm 0.00 in/hr0.0 mm/hr 0.00 in0.0 mm
05:54 PM 55.7°F13.2°C 36.4°F2.4°C 48% 6.1 mph NNE9.8 kmh NNE 8.7 mph14.0 kmh 28.47 in964.1 mb 0.00 in0.0 mm 0.00 in/hr0.0 mm/hr 0.00 in0.0 mm
05:59 PM 55.6°F13.1°C 36.2°F2.3°C 48% 6.6 mph N10.6 kmh N 8.7 mph14.0 kmh 28.47 in964.1 mb 0.00 in0.0 mm 0.00 in/hr0.0 mm/hr 0.00 in0.0 mm
06:04 PM 55.5°F13.1°C 36.1°F2.3°C 48% 6.0 mph NE9.7 kmh NE 8.7 mph14.0 kmh 28.47 in964.1 mb 0.00 in0.0 mm 0.00 in/hr0.0 mm/hr 0.00 in0.0 mm
06:09 PM 55.3°F12.9°C 36.2°F2.3°C 49% 5.1 mph NNE8.2 kmh NNE 8.5 mph13.7 kmh 28.47 in964.1 mb 0.00 in0.0 mm 0.00 in/hr0.0 mm/hr 0.00 in0.0 mm
06:14 PM 55.2°F12.9°C 36.4°F2.4°C 49% 4.0 mph N6.4 kmh N 8.1 mph13.0 kmh 28.47 in964.1 mb 0.00 in0.0 mm 0.00 in/hr0.0 mm/hr 0.00 in0.0 mm
06:19 PM 55.0°F12.8°C 36.2°F2.3°C 49% 5.6 mph NE9.0 kmh NE 8.9 mph14.3 kmh 28.47 in964.1 mb 0.00 in0.0 mm 0.00 in/hr0.0 mm/hr 0.00 in0.0 mm
06:24 PM 54.9°F12.7°C 36.2°F2.3°C 50% 6.1 mph NNE9.8 kmh NNE 8.9 mph14.3 kmh 28.47 in964.1 mb 0.00 in0.0 mm 0.00 in/hr0.0 mm/hr 0.00 in0.0 mm
06:29 PM 54.8°F12.7°C 36.6°F2.6°C 50% 3.9 mph NE6.3 kmh NE 7.8 mph12.6 kmh 28.44 in963.1 mb 0.00 in0.0 mm 0.00 in/hr0.0 mm/hr 0.00 in0.0 mm
06:34 PM 54.7°F12.6°C 36.4°F2.4°C 50% 3.0 mph NW4.8 kmh NW 6.3 mph10.1 kmh 28.44 in963.1 mb 0.00 in0.0 mm 0.00 in/hr0.0 mm/hr 0.00 in0.0 mm
06:39 PM 54.5°F12.5°C 36.3°F2.4°C 50% 3.9 mph NNW6.3 kmh NNW 7.4 mph11.9 kmh 28.44 in963.1 mb 0.00 in0.0 mm 0.00 in/hr0.0 mm/hr 0.00 in0.0 mm
06:44 PM 54.4°F12.4°C 36.2°F2.3°C 50% 2.6 mph NNE4.2 kmh NNE 7.4 mph11.9 kmh 28.41 in962.1 mb 0.00 in0.0 mm 0.00 in/hr0.0 mm/hr 0.00 in0.0 mm
06:49 PM 54.3°F12.4°C 36.5°F2.5°C 51% 3.9 mph NNW6.3 kmh NNW 6.0 mph9.7 kmh 28.41 in962.1 mb 0.00 in0.0 mm 0.00 in/hr0.0 mm/hr 0.00 in0.0 mm
06:54 PM 54.2°F12.3°C 36.5°F2.5°C 51% 3.3 mph N5.3 kmh N 6.0 mph9.7 kmh 28.41 in962.1 mb 0.00 in0.0 mm 0.00 in/hr0.0 mm/hr 0.00 in0.0 mm
06:59 PM 53.9°F12.2°C 36.2°F2.3°C 51% 1.5 mph NW2.4 kmh NW 5.6 mph9.0 kmh 28.41 in962.1 mb 0.00 in0.0 mm 0.00 in/hr0.0 mm/hr 0.00 in0.0 mm
07:04 PM 53.6°F12.0°C 36.2°F2.3°C 52% 2.4 mph N3.9 kmh N 4.3 mph6.9 kmh 28.41 in962.1 mb 0.00 in0.0 mm 0.00 in/hr0.0 mm/hr 0.00 in0.0 mm
07:09 PM 53.5°F11.9°C 36.5°F2.5°C 53% 2.3 mph N3.7 kmh N 4.3 mph6.9 kmh 28.41 in962.1 mb 0.00 in0.0 mm 0.00 in/hr0.0 mm/hr 0.00 in0.0 mm
07:14 PM 53.2°F11.8°C 36.7°F2.6°C 54% 3.2 mph NW5.1 kmh NW 4.0 mph6.4 kmh 28.44 in963.1 mb 0.00 in0.0 mm 0.00 in/hr0.0 mm/hr 0.00 in0.0 mm
07:19 PM 53.1°F11.7°C 36.9°F2.7°C 54% 2.5 mph NNW4.0 kmh NNW 4.3 mph6.9 kmh 28.44 in963.1 mb 0.00 in0.0 mm 0.00 in/hr0.0 mm/hr 0.00 in0.0 mm
07:24 PM 53.1°F11.7°C 37.2°F2.9°C 55% 3.5 mph N5.6 kmh N 7.2 mph11.6 kmh 28.44 in963.1 mb 0.00 in0.0 mm 0.00 in/hr0.0 mm/hr 0.00 in0.0 mm
07:29 PM 53.0°F11.7°C 37.7°F3.2°C 56% 3.2 mph N5.1 kmh N 7.2 mph11.6 kmh 28.41 in962.1 mb 0.00 in0.0 mm 0.00 in/hr0.0 mm/hr 0.00 in0.0 mm
07:34 PM 53.1°F11.7°C 38.2°F3.4°C 57% 3.4 mph N5.5 kmh N 5.8 mph9.3 kmh 28.41 in962.1 mb 0.00 in0.0 mm 0.00 in/hr0.0 mm/hr 0.00 in0.0 mm
07:39 PM 52.8°F11.6°C 38.0°F3.3°C 57% 2.3 mph NNW3.7 kmh NNW 5.8 mph9.3 kmh 28.41 in962.1 mb 0.00 in0.0 mm 0.00 in/hr0.0 mm/hr 0.00 in0.0 mm
07:44 PM 52.5°F11.4°C 38.0°F3.3°C 58% 1.9 mph NNW3.1 kmh NNW 4.9 mph7.9 kmh 28.41 in962.1 mb 0.00 in0.0 mm 0.00 in/hr0.0 mm/hr 0.00 in0.0 mm
07:49 PM 52.3°F11.3°C 38.5°F3.6°C 59% 2.2 mph N3.5 kmh N 6.5 mph10.5 kmh 28.41 in962.1 mb 0.00 in0.0 mm 0.00 in/hr0.0 mm/hr 0.00 in0.0 mm
07:54 PM 52.1°F11.2°C 38.2°F3.4°C 59% 2.6 mph N4.2 kmh N 6.5 mph10.5 kmh 28.41 in962.1 mb 0.00 in0.0 mm 0.00 in/hr0.0 mm/hr 0.00 in0.0 mm
07:59 PM 51.9°F11.1°C 38.5°F3.6°C 60% 1.5 mph WNW2.4 kmh WNW 5.4 mph8.7 kmh 28.41 in962.1 mb 0.00 in0.0 mm 0.00 in/hr0.0 mm/hr 0.00 in0.0 mm
08:04 PM 51.6°F10.9°C 38.5°F3.6°C 61% 2.1 mph N3.4 kmh N 4.7 mph7.6 kmh 28.41 in962.1 mb 0.00 in0.0 mm 0.00 in/hr0.0 mm/hr 0.00 in0.0 mm
08:09 PM 51.4°F10.8°C 38.7°F3.7°C 62% 2.6 mph N4.2 kmh N 5.4 mph8.7 kmh 28.41 in962.1 mb 0.00 in0.0 mm 0.00 in/hr0.0 mm/hr 0.00 in0.0 mm
08:14 PM 51.4°F10.8°C 38.9°F3.8°C 62% 2.5 mph N4.0 kmh N 6.3 mph10.1 kmh 28.41 in962.1 mb 0.00 in0.0 mm 0.00 in/hr0.0 mm/hr 0.00 in0.0 mm
08:19 PM 51.4°F10.8°C 38.9°F3.8°C 62% 2.0 mph NNE3.2 kmh NNE 6.3 mph10.1 kmh 28.41 in962.1 mb 0.00 in0.0 mm 0.00 in/hr0.0 mm/hr 0.00 in0.0 mm
08:24 PM 51.5°F10.8°C 39.1°F3.9°C 62% 3.4 mph N5.5 kmh N 4.7 mph7.6 kmh 28.41 in962.1 mb 0.00 in0.0 mm 0.00 in/hr0.0 mm/hr 0.00 in0.0 mm
08:29 PM 51.6°F10.9°C 39.2°F4.0°C 62% 1.7 mph NNW2.7 kmh NNW 4.7 mph7.6 kmh 28.44 in963.1 mb 0.00 in0.0 mm 0.00 in/hr0.0 mm/hr 0.00 in0.0 mm
08:34 PM 51.6°F10.9°C 39.0°F3.9°C 62% 1.8 mph N2.9 kmh N 3.6 mph5.8 kmh 28.44 in963.1 mb 0.00 in0.0 mm 0.00 in/hr0.0 mm/hr 0.00 in0.0 mm
08:39 PM 51.6°F10.9°C 39.0°F3.9°C 62% 1.9 mph NNE3.1 kmh NNE 4.9 mph7.9 kmh 28.44 in963.1 mb 0.00 in0.0 mm 0.00 in/hr0.0 mm/hr 0.00 in0.0 mm
08:44 PM 51.6°F10.9°C 39.5°F4.2°C 63% 2.5 mph N4.0 kmh N 4.9 mph7.9 kmh 28.41 in962.1 mb 0.00 in0.0 mm 0.00 in/hr0.0 mm/hr 0.00 in0.0 mm
08:49 PM 51.4°F10.8°C 39.0°F3.9°C 63% 1.3 mph NNW2.1 kmh NNW 4.0 mph6.4 kmh 28.41 in962.1 mb 0.00 in0.0 mm 0.00 in/hr0.0 mm/hr 0.00 in0.0 mm
08:54 PM 50.9°F10.5°C 38.5°F3.6°C 63% 0.9 mph NNW1.4 kmh NNW 2.5 mph4.0 kmh 28.41 in962.1 mb 0.00 in0.0 mm 0.00 in/hr0.0 mm/hr 0.00 in0.0 mm
08:59 PM 50.5°F10.3°C 38.5°F3.6°C 64% 1.3 mph NW2.1 kmh NW 4.3 mph6.9 kmh 28.41 in962.1 mb 0.00 in0.0 mm 0.00 in/hr0.0 mm/hr 0.00 in0.0 mm
09:04 PM 50.3°F10.2°C 38.6°F3.7°C 64% 1.2 mph NNW1.9 kmh NNW 4.3 mph6.9 kmh 28.41 in962.1 mb 0.00 in0.0 mm 0.00 in/hr0.0 mm/hr 0.00 in0.0 mm
09:09 PM 50.0°F10.0°C 38.7°F3.7°C 66% 1.1 mph NW1.8 kmh NW 3.6 mph5.8 kmh 28.41 in962.1 mb 0.00 in0.0 mm 0.00 in/hr0.0 mm/hr 0.00 in0.0 mm
09:14 PM 49.8°F9.9°C 39.3°F4.1°C 67% 1.8 mph NW2.9 kmh NW 3.6 mph5.8 kmh 28.44 in963.1 mb 0.00 in0.0 mm 0.00 in/hr0.0 mm/hr 0.00 in0.0 mm
09:19 PM 49.9°F9.9°C 39.9°F4.4°C 68% 3.9 mph NW6.3 kmh NW 6.3 mph10.1 kmh 28.44 in963.1 mb 0.00 in0.0 mm 0.00 in/hr0.0 mm/hr 0.00 in0.0 mm
09:24 PM 49.9°F9.9°C 39.9°F4.4°C 69% 2.8 mph NW4.5 kmh NW 6.3 mph10.1 kmh 28.44 in963.1 mb 0.00 in0.0 mm 0.00 in/hr0.0 mm/hr 0.00 in0.0 mm
09:29 PM 49.6°F9.8°C 39.6°F4.2°C 69% 2.4 mph NW3.9 kmh NW 5.4 mph8.7 kmh 28.44 in963.1 mb 0.00 in0.0 mm 0.00 in/hr0.0 mm/hr 0.00 in0.0 mm
09:34 PM 49.5°F9.7°C 40.0°F4.4°C 70% 2.5 mph NW4.0 kmh NW 4.7 mph7.6 kmh 28.44 in963.1 mb 0.00 in0.0 mm 0.00 in/hr0.0 mm/hr 0.00 in0.0 mm
09:39 PM 49.2°F9.6°C 39.6°F4.2°C 69% 1.5 mph NW2.4 kmh NW 4.7 mph7.6 kmh 28.44 in963.1 mb 0.00 in0.0 mm 0.00 in/hr0.0 mm/hr 0.00 in0.0 mm
09:44 PM 48.8°F9.3°C 39.5°F4.2°C 71% 2.5 mph WNW4.0 kmh WNW 3.8 mph6.1 kmh 28.44 in963.1 mb 0.00 in0.0 mm 0.00 in/hr0.0 mm/hr 0.00 in0.0 mm
09:49 PM 48.7°F9.3°C 40.1°F4.5°C 72% 3.0 mph WNW4.8 kmh WNW 5.6 mph9.0 kmh 28.44 in963.1 mb 0.00 in0.0 mm 0.00 in/hr0.0 mm/hr 0.00 in0.0 mm
09:54 PM 48.9°F9.4°C 40.2°F4.6°C 72% 3.2 mph WNW5.1 kmh WNW 5.6 mph9.0 kmh 28.44 in963.1 mb 0.00 in0.0 mm 0.00 in/hr0.0 mm/hr 0.00 in0.0 mm
09:59 PM 48.8°F9.3°C 40.0°F4.4°C 72% 2.8 mph WNW4.5 kmh WNW 5.6 mph9.0 kmh 28.44 in963.1 mb 0.00 in0.0 mm 0.00 in/hr0.0 mm/hr 0.00 in0.0 mm
10:04 PM 48.7°F9.3°C 40.1°F4.5°C 72% 2.4 mph NW3.9 kmh NW 4.9 mph7.9 kmh 28.44 in963.1 mb 0.00 in0.0 mm 0.00 in/hr0.0 mm/hr 0.00 in0.0 mm
10:09 PM 48.7°F9.3°C 39.9°F4.4°C 71% 2.4 mph NW3.9 kmh NW 3.8 mph6.1 kmh 28.44 in963.1 mb 0.00 in0.0 mm 0.00 in/hr0.0 mm/hr 0.00 in0.0 mm
10:14 PM 48.5°F9.2°C 39.5°F4.2°C 71% 1.3 mph WNW2.1 kmh WNW 3.8 mph6.1 kmh 28.44 in963.1 mb 0.00 in0.0 mm 0.00 in/hr0.0 mm/hr 0.00 in0.0 mm
10:19 PM 48.6°F9.2°C 40.0°F4.4°C 73% 2.7 mph WNW4.3 kmh WNW 4.3 mph6.9 kmh 28.44 in963.1 mb 0.00 in0.0 mm 0.00 in/hr0.0 mm/hr 0.00 in0.0 mm
10:24 PM 48.4°F9.1°C 40.0°F4.4°C 72% 1.6 mph NW2.6 kmh NW 4.3 mph6.9 kmh 28.44 in963.1 mb 0.00 in0.0 mm 0.00 in/hr0.0 mm/hr 0.00 in0.0 mm
10:29 PM 48.3°F9.1°C 39.7°F4.3°C 73% 2.1 mph NW3.4 kmh NW 3.6 mph5.8 kmh 28.47 in964.1 mb 0.00 in0.0 mm 0.00 in/hr0.0 mm/hr 0.00 in0.0 mm
10:34 PM 48.1°F8.9°C 39.8°F4.3°C 72% 0.4 mph WNW0.6 kmh WNW 2.9 mph4.7 kmh 28.47 in964.1 mb 0.00 in0.0 mm 0.00 in/hr0.0 mm/hr 0.00 in0.0 mm
10:39 PM 47.8°F8.8°C 39.5°F4.2°C 73% 0.8 mph NW1.3 kmh NW 3.1 mph5.0 kmh 28.47 in964.1 mb 0.00 in0.0 mm 0.00 in/hr0.0 mm/hr 0.00 in0.0 mm
10:44 PM 47.5°F8.6°C 39.2°F4.0°C 73% 1.2 mph NNW1.9 kmh NNW 3.1 mph5.0 kmh 28.47 in964.1 mb 0.00 in0.0 mm 0.00 in/hr0.0 mm/hr 0.00 in0.0 mm
10:49 PM 47.5°F8.6°C 39.4°F4.1°C 73% Calm Calm 2.2 mph3.5 kmh 28.47 in964.1 mb 0.00 in0.0 mm 0.00 in/hr0.0 mm/hr 0.00 in0.0 mm
10:54 PM 47.2°F8.4°C 39.0°F3.9°C 73% Calm Calm 2.2 mph3.5 kmh 28.47 in964.1 mb 0.00 in0.0 mm 0.00 in/hr0.0 mm/hr 0.00 in0.0 mm
10:59 PM 46.9°F8.3°C 38.7°F3.7°C 73% Calm Calm 2.2 mph3.5 kmh 28.44 in963.1 mb 0.00 in0.0 mm 0.00 in/hr0.0 mm/hr 0.00 in0.0 mm
11:04 PM 47.3°F8.5°C 39.7°F4.3°C 75% 1.0 mph NNW1.6 kmh NNW 3.4 mph5.5 kmh 28.44 in963.1 mb 0.00 in0.0 mm 0.00 in/hr0.0 mm/hr 0.00 in0.0 mm
11:09 PM 47.3°F8.5°C 39.5°F4.2°C 74% 0.6 mph WNW1.0 kmh WNW 3.4 mph5.5 kmh 28.44 in963.1 mb 0.00 in0.0 mm 0.00 in/hr0.0 mm/hr 0.00 in0.0 mm
11:14 PM 47.3°F8.5°C 39.6°F4.2°C 75% 0.7 mph NW1.1 kmh NW 3.8 mph6.1 kmh 28.47 in964.1 mb 0.00 in0.0 mm 0.00 in/hr0.0 mm/hr 0.00 in0.0 mm
11:19 PM 47.5°F8.6°C 40.0°F4.4°C 75% 1.6 mph NNW2.6 kmh NNW 3.8 mph6.1 kmh 28.47 in964.1 mb 0.00 in0.0 mm 0.00 in/hr0.0 mm/hr 0.00 in0.0 mm
11:24 PM 47.8°F8.8°C 40.6°F4.8°C 76% 2.7 mph NW4.3 kmh NW 4.0 mph6.4 kmh 28.47 in964.1 mb 0.00 in0.0 mm 0.00 in/hr0.0 mm/hr 0.00 in0.0 mm
11:29 PM 48.3°F9.1°C 40.8°F4.9°C 75% 2.7 mph NW4.3 kmh NW 4.3 mph6.9 kmh 28.44 in963.1 mb 0.00 in0.0 mm 0.00 in/hr0.0 mm/hr 0.00 in0.0 mm
11:34 PM 48.7°F9.3°C 41.0°F5.0°C 74% 1.6 mph N2.6 kmh N 4.7 mph7.6 kmh 28.44 in963.1 mb 0.00 in0.0 mm 0.00 in/hr0.0 mm/hr 0.00 in0.0 mm
11:39 PM 48.8°F9.3°C 40.9°F4.9°C 74% 2.5 mph N4.0 kmh N 4.7 mph7.6 kmh 28.44 in963.1 mb 0.00 in0.0 mm 0.00 in/hr0.0 mm/hr 0.00 in0.0 mm
11:44 PM 49.0°F9.4°C 40.7°F4.8°C 73% 3.2 mph NW5.1 kmh NW 4.3 mph6.9 kmh 28.44 in963.1 mb 0.00 in0.0 mm 0.00 in/hr0.0 mm/hr 0.00 in0.0 mm
11:49 PM 49.1°F9.5°C 40.8°F4.9°C 73% 2.9 mph WNW4.7 kmh WNW 4.3 mph6.9 kmh 28.44 in963.1 mb 0.00 in0.0 mm 0.00 in/hr0.0 mm/hr 0.00 in0.0 mm
11:54 PM 49.1°F9.5°C 40.8°F4.9°C 73% 3.0 mph NW4.8 kmh NW 3.8 mph6.1 kmh 28.44 in963.1 mb 0.00 in0.0 mm 0.00 in/hr0.0 mm/hr 0.00 in0.0 mm
11:59 PM 49.0°F9.4°C 41.0°F5.0°C 74% 3.9 mph WNW6.3 kmh WNW 5.8 mph9.3 kmh 28.44 in963.1 mb 0.00 in0.0 mm 0.00 in/hr0.0 mm/hr 0.00 in0.0 mm